Williamsburg, Iowa
Current Conditions -  °F | °C
As of 3:52 PM on Friday 31 Oct 2014 (Local Time) from KCID Reporting Station
Clear Clear  
Wind Chill: 34°   Ceiling: Unl
Heat Index: 42°   Visibility: 10mi
Dew Point: 20°   Wind: 18mph
Humidity: 41%   Direction: 350°N
Pressure: 30.39"   Gusts: 24mph
Location:  41.66°N, 92.01°W
Report Text: KCID 312052Z 35016G21KT 10SM CLR 06/M07 A3039 RMK AO2 SLP298 T00561067 56003
Loading
Personal Weather Stations






























Interactive Weather Map
Tropical Storm Tracking
New forecast layout! Learn more

10-Day Weather Forecast

Advertisements
Track Severe Weather on mobile